Portada
METAR-TAF:

METAR-TAF

Aeropuertos :

Port Sudan, Sudán

latitud: 19-26N, longitud: 037-14E, altitud: 138 m

METAR: falta

Hora: 14:57 (12:57 UTC)

Pronóstico

El informe se hizo hace 1 hora y 57 minutos, a las 11:00 UTC
Pronóstico válido del 05 a las 12 UTC al 06 a las 18 UTC
Viento 14 kt del este-noreste con ráfagas de 24 kt
Visibilidad 10 km o más
Nubes dispersas a una altura de 3000 ft
Nubes dispersas a una altura de 13000 ft

TAF: HSPN 051100Z 0512/0618 07014G24KT 9999 SCT030 SCT130

Observaciones y pronósticos meteorológicos de más de 4000 aeropuertos (mensajes METAR y TAF).

Los puntos amarillos y rojos representan las estaciones disponibles.

Ponga el ratón en el punto deseado para ver el nombre de la estación.

Haga clic para ver las observaciones y los pronósticos meteorológicos.

Para cambiar el mapa : haga clic en los botones verdes con una cruz de color negro para hacer un zoom, en el botón verde con un guión para alejar o en las flechas verdes para mapas adyacentes.


METAR-TAF: